createdAt,value
2018-09-14T00:02:02.437Z,10.10
2018-09-14T00:04:32.653Z,9.67
2018-09-14T00:07:02.592Z,11.70
2018-09-14T00:09:33.859Z,9.63
2018-09-14T00:12:07.338Z,11.10
2018-09-14T00:14:37.300Z,8.80
2018-09-14T00:17:24.713Z,13.33
2018-09-14T00:19:54.740Z,15.30
2018-09-14T00:22:24.567Z,7.93
2018-09-14T00:24:54.785Z,11.73
2018-09-14T00:27:26.095Z,12.40
2018-09-14T00:29:56.158Z,13.73
2018-09-14T00:32:26.285Z,6.60
2018-09-14T00:34:56.387Z,11.00
2018-09-14T00:37:26.780Z,9.17
2018-09-14T00:39:56.866Z,8.03
2018-09-14T00:42:27.480Z,10.33
2018-09-14T00:44:57.475Z,9.90
2018-09-14T00:47:46.422Z,9.07
2018-09-14T00:50:16.622Z,11.37
2018-09-14T00:52:46.605Z,7.10
2018-09-14T00:55:16.545Z,8.60
2018-09-14T00:57:46.368Z,9.60
2018-09-14T01:00:17.063Z,9.80
2018-09-14T01:02:46.961Z,8.93
2018-09-14T01:05:16.996Z,13.80
2018-09-14T01:07:46.830Z,10.97
2018-09-14T01:10:17.643Z,12.40
2018-09-14T01:12:47.828Z,10.33
2018-09-14T01:15:17.766Z,10.50
2018-09-14T01:17:47.697Z,8.00
2018-09-14T01:20:17.638Z,10.63
2018-09-14T01:22:47.833Z,10.77
2018-09-14T01:25:18.400Z,8.60
2018-09-14T01:27:48.792Z,11.10
2018-09-14T01:30:19.579Z,8.90
2018-09-14T01:32:50.107Z,13.13
2018-09-14T01:35:27.739Z,13.50
2018-09-14T01:37:58.200Z,8.63
2018-09-14T01:40:28.025Z,8.17
2018-09-14T01:42:58.336Z,10.07
2018-09-14T01:45:28.182Z,8.23
2018-09-14T01:47:57.928Z,8.77
2018-09-14T01:50:28.025Z,7.63
2018-09-14T01:52:58.095Z,8.50
2018-09-14T01:55:27.938Z,10.87
2018-09-14T01:57:57.836Z,8.80
2018-09-14T02:00:32.547Z,9.83
2018-09-14T02:03:02.356Z,7.97
2018-09-14T02:05:32.050Z,11.17
2018-09-14T02:08:02.282Z,8.50
2018-09-14T02:10:32.880Z,7.30
2018-09-14T02:13:02.553Z,7.80
2018-09-14T02:15:32.367Z,10.53
2018-09-14T02:18:02.637Z,7.90
2018-09-14T02:20:32.892Z,7.70
2018-09-14T02:23:02.643Z,8.53
2018-09-14T02:25:32.564Z,8.93
2018-09-14T02:28:02.883Z,10.10
2018-09-14T02:30:33.015Z,8.90
2018-09-14T02:33:03.004Z,12.70
2018-09-14T02:35:32.582Z,9.40
2018-09-14T02:38:02.328Z,10.10
2018-09-14T02:40:32.275Z,8.07
2018-09-14T02:43:02.137Z,8.40
2018-09-14T02:45:31.832Z,14.03
2018-09-14T02:48:02.227Z,8.23
2018-09-14T02:50:32.346Z,8.23
2018-09-14T02:53:02.201Z,7.93
2018-09-14T02:55:32.615Z,14.70
2018-09-14T02:58:02.355Z,10.80
2018-09-14T03:00:31.962Z,8.80
2018-09-14T03:03:01.787Z,9.10
2018-09-14T03:05:31.910Z,9.63
2018-09-14T03:08:01.771Z,9.17
2018-09-14T03:10:31.635Z,7.90
2018-09-14T03:13:01.638Z,10.27
2018-09-14T03:15:31.242Z,8.37
2018-09-14T03:18:01.059Z,11.40
2018-09-14T03:20:31.100Z,8.83
2018-09-14T03:23:01.096Z,9.00
2018-09-14T03:25:30.722Z,9.50
2018-09-14T03:28:01.067Z,7.43
2018-09-14T03:30:31.231Z,10.10
2018-09-14T03:33:00.963Z,8.47
2018-09-14T03:35:31.187Z,8.70
2018-09-14T03:38:01.048Z,8.93
2018-09-14T03:40:30.914Z,7.40
2018-09-14T03:43:00.628Z,8.63
2018-09-14T03:45:30.376Z,6.93
2018-09-14T03:48:00.423Z,9.00
2018-09-14T03:50:30.875Z,7.70
2018-09-14T03:53:01.566Z,8.73
2018-09-14T03:55:31.316Z,7.93
2018-09-14T03:58:00.967Z,9.80
2018-09-14T04:00:30.769Z,10.33
2018-09-14T04:03:01.173Z,7.53
2018-09-14T04:05:31.118Z,9.00
2018-09-14T04:08:00.631Z,8.03
2018-09-14T04:10:30.565Z,9.10
2018-09-14T04:13:01.851Z,8.83
2018-09-14T04:15:32.733Z,7.30
2018-09-14T04:18:02.925Z,10.17
2018-09-14T04:20:32.852Z,9.30
2018-09-14T04:23:02.587Z,11.27
2018-09-14T04:25:32.798Z,9.63
2018-09-14T04:28:03.426Z,8.60
2018-09-14T04:30:36.252Z,7.90
2018-09-14T04:33:10.056Z,12.83
2018-09-14T04:35:42.514Z,7.80
2018-09-14T04:38:15.943Z,11.47
2018-09-14T04:40:46.735Z,12.47
2018-09-14T04:43:19.958Z,8.80
2018-09-14T04:45:53.688Z,11.63
2018-09-14T04:48:26.698Z,10.00
2018-09-14T04:50:56.507Z,7.53
2018-09-14T04:53:26.388Z,7.17
2018-09-14T04:55:56.848Z,10.70
2018-09-14T04:58:26.680Z,8.10
2018-09-14T05:00:56.795Z,9.00
2018-09-14T05:03:26.924Z,8.67
2018-09-14T05:05:56.844Z,10.30
2018-09-14T05:08:26.923Z,10.67
2018-09-14T05:10:57.668Z,8.97
2018-09-14T05:13:28.436Z,7.90
2018-09-14T05:15:58.486Z,10.00
2018-09-14T05:18:28.575Z,14.43
2018-09-14T05:20:59.601Z,11.03
2018-09-14T05:23:29.730Z,10.17
2018-09-14T05:26:00.831Z,16.67
2018-09-14T05:28:31.695Z,9.87
2018-09-14T05:31:01.500Z,13.70
2018-09-14T05:33:31.742Z,12.27
2018-09-14T05:36:02.081Z,11.30
2018-09-14T05:38:32.228Z,11.80
2018-09-14T05:41:01.979Z,9.20
2018-09-14T05:43:31.883Z,13.13
2018-09-14T05:46:01.633Z,11.37
2018-09-14T05:48:32.368Z,11.43
2018-09-14T05:51:02.910Z,11.93
2018-09-14T05:53:32.606Z,11.90
2018-09-14T05:56:05.234Z,15.40
2018-09-14T05:58:35.088Z,12.33
2018-09-14T06:01:06.367Z,16.60
2018-09-14T06:03:36.259Z,14.50
2018-09-14T06:06:07.584Z,14.33
2018-09-14T06:08:37.648Z,15.80
2018-09-14T06:11:07.976Z,14.27
2018-09-14T06:13:37.784Z,14.00
2018-09-14T06:16:08.429Z,14.03
2018-09-14T06:18:38.493Z,14.07
2018-09-14T06:21:08.415Z,14.47
2018-09-14T06:23:38.522Z,17.70
2018-09-14T06:26:09.474Z,16.90
2018-09-14T06:28:39.611Z,18.77
2018-09-14T06:31:10.774Z,27.27
2018-09-14T06:33:44.428Z,21.07
2018-09-14T06:36:14.363Z,19.17
2018-09-14T06:38:46.276Z,20.47
2018-09-14T06:41:16.225Z,23.20
2018-09-14T06:43:49.253Z,22.37
2018-09-14T06:46:19.065Z,23.60
2018-09-14T06:48:50.630Z,20.40
2018-09-14T06:51:20.552Z,24.30
2018-09-14T06:53:55.866Z,19.07
2018-09-14T06:56:26.315Z,24.20
2018-09-14T06:58:58.475Z,20.60
2018-09-14T07:01:29.535Z,20.97
2018-09-14T07:04:02.822Z,21.43
2018-09-14T07:09:20.845Z,18.63
2018-09-14T07:11:54.731Z,25.37
2018-09-14T07:14:28.363Z,26.97
2018-09-14T07:16:58.979Z,28.30
2018-09-14T07:19:30.691Z,27.20
2018-09-14T07:22:02.241Z,26.70
2018-09-14T07:24:39.801Z,26.27
2018-09-14T07:27:13.005Z,23.50
2018-09-14T07:29:44.607Z,28.03
2018-09-14T07:32:17.878Z,24.33
2018-09-14T07:34:55.023Z,22.73
2018-09-14T07:37:25.368Z,26.93
2018-09-14T07:39:55.576Z,21.13
2018-09-14T07:42:25.927Z,22.47
2018-09-14T07:44:56.869Z,19.47
2018-09-14T07:47:27.480Z,16.80
2018-09-14T07:49:58.264Z,23.60
2018-09-14T07:52:29.243Z,19.37
2018-09-14T07:55:01.876Z,23.43
2018-09-14T07:57:32.094Z,18.70
2018-09-14T08:00:03.313Z,19.23
2018-09-14T08:02:33.517Z,21.13
2018-09-14T08:05:05.145Z,19.50
2018-09-14T08:07:36.237Z,23.07
2018-09-14T08:10:06.432Z,24.37
2018-09-14T08:12:39.302Z,25.77
2018-09-14T08:15:09.658Z,21.73
2018-09-14T08:17:39.747Z,22.67
2018-09-14T08:20:10.044Z,24.63
2018-09-14T08:22:39.955Z,18.97
2018-09-14T08:25:09.962Z,21.80
2018-09-14T08:27:41.528Z,17.83
2018-09-14T08:30:12.204Z,18.07
2018-09-14T08:32:42.361Z,19.20
2018-09-14T08:35:13.490Z,20.70
2018-09-14T08:37:43.812Z,22.47
2018-09-14T08:40:15.597Z,25.93
2018-09-14T08:42:46.084Z,23.53
2018-09-14T08:45:16.331Z,23.27
2018-09-14T08:47:48.338Z,22.27
2018-09-14T08:50:18.885Z,20.70
2018-09-14T08:52:50.593Z,21.40
2018-09-14T08:55:22.385Z,23.30
2018-09-14T08:57:53.426Z,22.20
2018-09-14T09:00:25.446Z,19.03
2018-09-14T09:02:56.246Z,19.40
2018-09-14T09:05:26.179Z,19.63
2018-09-14T09:07:56.262Z,25.40
2018-09-14T09:10:26.435Z,21.03
2018-09-14T09:12:57.272Z,18.43
2018-09-14T09:15:28.074Z,20.30
2018-09-14T09:17:58.575Z,18.53
2018-09-14T09:20:29.552Z,18.47
2018-09-14T09:22:59.712Z,20.47
2018-09-14T09:25:31.561Z,23.30
2018-09-14T09:28:01.437Z,19.73
2018-09-14T09:30:31.930Z,17.03
2018-09-14T09:33:02.498Z,19.97
2018-09-14T09:35:32.822Z,19.33
2018-09-14T09:38:02.952Z,17.63
2018-09-14T09:40:32.751Z,16.43
2018-09-14T09:43:03.501Z,13.70
2018-09-14T09:45:35.790Z,7.73
2018-09-14T09:48:09.021Z,12.37
2018-09-14T09:50:39.945Z,11.33
2018-09-14T09:53:10.605Z,11.93
2018-09-14T09:55:42.246Z,10.10
2018-09-14T09:58:12.974Z,12.40
2018-09-14T10:00:49.065Z,13.37
2018-09-14T10:03:24.240Z,10.80
2018-09-14T10:06:01.288Z,12.30
2018-09-14T10:08:32.682Z,11.40
2018-09-14T10:11:04.902Z,14.10
2018-09-14T10:13:35.083Z,12.63
2018-09-14T10:16:05.738Z,9.37
2018-09-14T10:18:37.144Z,8.67
2018-09-14T10:21:09.128Z,10.03
2018-09-14T10:23:39.647Z,9.10
2018-09-14T10:26:13.037Z,7.90
2018-09-14T10:28:44.934Z,11.57
2018-09-14T10:31:15.660Z,11.43
2018-09-14T10:33:46.875Z,10.30
2018-09-14T10:36:17.808Z,9.43
2018-09-14T10:38:48.190Z,11.00
2018-09-14T10:41:19.736Z,21.13
2018-09-14T10:43:49.681Z,10.30
2018-09-14T10:46:22.012Z,12.60
2018-09-14T10:48:51.868Z,10.07
2018-09-14T10:51:22.063Z,9.70
2018-09-14T10:53:52.709Z,11.93
2018-09-14T10:56:23.252Z,13.87
2018-09-14T10:58:54.242Z,11.73
2018-09-14T11:01:25.459Z,12.17
2018-09-14T11:03:56.238Z,12.60
2018-09-14T11:06:26.479Z,12.17
2018-09-14T11:08:57.003Z,13.33
2018-09-14T11:11:27.456Z,10.60
2018-09-14T11:13:57.988Z,14.43
2018-09-14T11:16:28.703Z,13.47
2018-09-14T11:18:59.036Z,11.23
2018-09-14T11:21:30.184Z,14.80
2018-09-14T11:24:03.432Z,14.50
2018-09-14T11:26:33.636Z,10.63
2018-09-14T11:29:05.061Z,11.53
2018-09-14T11:31:35.955Z,16.20
2018-09-14T11:34:06.347Z,12.10
2018-09-14T11:36:37.466Z,10.27
2018-09-14T11:39:09.927Z,13.17
2018-09-14T11:41:39.875Z,17.27
2018-09-14T11:44:10.889Z,14.77
2018-09-14T11:46:41.333Z,15.47
2018-09-14T11:49:12.588Z,13.33
2018-09-14T11:51:43.511Z,10.50
2018-09-14T11:54:14.508Z,11.10
2018-09-14T11:56:44.509Z,9.70
2018-09-14T11:59:15.080Z,13.90
2018-09-14T12:01:45.577Z,12.30
2018-09-14T12:04:15.491Z,11.20
2018-09-14T12:06:46.586Z,15.43
2018-09-14T12:09:17.641Z,11.77
2018-09-14T12:11:49.000Z,11.60
2018-09-14T12:14:19.479Z,12.97
2018-09-14T12:16:50.099Z,18.70
2018-09-14T12:19:22.082Z,18.33
2018-09-14T12:21:54.496Z,19.07
2018-09-14T12:24:25.154Z,18.17
2018-09-14T12:26:55.365Z,21.27
2018-09-14T12:29:25.812Z,17.53
2018-09-14T12:31:55.809Z,13.97
2018-09-14T12:34:26.988Z,14.87
2018-09-14T12:36:57.759Z,17.30
2018-09-14T12:39:28.229Z,14.50
2018-09-14T12:42:00.152Z,18.73
2018-09-14T12:44:30.978Z,25.90
2018-09-14T12:47:01.192Z,19.63
2018-09-14T12:49:32.748Z,20.43
2018-09-14T12:52:03.108Z,12.40
2018-09-14T12:54:38.390Z,18.33
2018-09-14T12:57:08.873Z,18.80
2018-09-14T12:59:39.197Z,15.27
2018-09-14T13:02:09.558Z,16.13
2018-09-14T13:04:39.947Z,15.43
2018-09-14T13:07:10.624Z,16.93
2018-09-14T13:09:41.867Z,20.07
2018-09-14T13:12:13.504Z,17.63
2018-09-14T13:14:46.369Z,17.57
2018-09-14T13:17:17.840Z,15.40
2018-09-14T13:19:48.263Z,18.47
2018-09-14T13:22:18.878Z,16.90
2018-09-14T13:24:49.155Z,18.90
2018-09-14T13:27:20.299Z,26.73
2018-09-14T13:29:52.177Z,16.33
2018-09-14T13:32:24.759Z,22.30
2018-09-14T13:34:55.685Z,15.60
2018-09-14T13:37:26.318Z,18.83
2018-09-14T13:39:57.752Z,16.87
2018-09-14T13:42:28.539Z,18.90
2018-09-14T13:44:58.335Z,16.00
2018-09-14T13:47:28.850Z,17.03
2018-09-14T13:49:59.727Z,19.50
2018-09-14T13:52:31.186Z,18.90
2018-09-14T13:55:04.737Z,15.43
2018-09-14T13:57:35.351Z,17.90
2018-09-14T14:00:08.980Z,18.03
2018-09-14T14:02:41.121Z,25.43
2018-09-14T14:05:12.959Z,16.57
2018-09-14T14:07:42.892Z,19.37
2018-09-14T14:10:15.205Z,18.17
2018-09-14T14:12:46.049Z,25.33
2018-09-14T14:15:16.922Z,14.43
2018-09-14T14:17:47.459Z,9.37
2018-09-14T14:20:17.623Z,13.77
2018-09-14T14:22:49.202Z,16.93
2018-09-14T14:25:19.362Z,12.87
2018-09-14T14:27:49.662Z,15.60
2018-09-14T14:30:20.726Z,14.37
2018-09-14T14:32:51.179Z,15.57
2018-09-14T14:35:25.327Z,13.83
2018-09-14T14:37:55.441Z,12.20
2018-09-14T14:40:27.001Z,15.80
2018-09-14T14:42:59.477Z,18.10
2018-09-14T14:45:30.422Z,17.87
2018-09-14T14:48:00.727Z,16.53
2018-09-14T14:50:31.388Z,14.50
2018-09-14T14:53:02.608Z,21.30
2018-09-14T14:55:32.652Z,17.03
2018-09-14T14:58:02.872Z,16.43
2018-09-14T15:00:33.069Z,16.50
2018-09-14T15:03:03.274Z,21.50
2018-09-14T15:05:33.906Z,18.80
2018-09-14T15:08:04.718Z,20.80
2018-09-14T15:10:35.839Z,17.50
2018-09-14T15:13:07.442Z,19.93
2018-09-14T15:15:42.655Z,18.00
2018-09-14T15:18:14.853Z,17.67
2018-09-14T15:20:44.985Z,20.83
2018-09-14T15:23:15.623Z,17.80
2018-09-14T15:25:48.692Z,18.33
2018-09-14T15:28:19.562Z,20.30
2018-09-14T15:30:50.018Z,24.40
2018-09-14T15:33:21.440Z,20.10
2018-09-14T15:35:51.551Z,21.47
2018-09-14T15:38:22.258Z,19.20
2018-09-14T15:40:52.531Z,23.77
2018-09-14T15:43:23.002Z,21.23
2018-09-14T15:45:53.657Z,18.30
2018-09-14T15:48:24.399Z,23.83
2018-09-14T15:50:54.555Z,21.20
2018-09-14T15:53:26.241Z,22.70
2018-09-14T15:55:57.754Z,20.23
2018-09-14T15:58:28.688Z,22.93
2018-09-14T16:00:58.732Z,22.90
2018-09-14T16:03:30.788Z,16.00
2018-09-14T16:06:02.418Z,17.73
2018-09-14T16:08:46.948Z,17.67
2018-09-14T16:11:22.649Z,15.23
2018-09-14T16:13:52.668Z,18.10
2018-09-14T16:16:22.865Z,19.70
2018-09-14T16:18:56.328Z,19.80
2018-09-14T16:21:27.795Z,16.83
2018-09-14T16:23:57.774Z,16.50
2018-09-14T16:26:28.602Z,18.03
2018-09-14T16:28:58.703Z,16.87
2018-09-14T16:31:29.065Z,12.90
2018-09-14T16:33:59.334Z,19.03
2018-09-14T16:36:30.591Z,21.90
2018-09-14T16:39:02.343Z,15.87
2018-09-14T16:41:41.497Z,14.77
2018-09-14T16:44:15.454Z,12.87
2018-09-14T16:46:46.310Z,21.43
2018-09-14T16:49:16.891Z,12.57
2018-09-14T16:51:47.596Z,17.30
2018-09-14T16:54:18.195Z,17.13
2018-09-14T16:56:48.563Z,14.50
2018-09-14T16:59:19.001Z,15.53
2018-09-14T17:01:49.092Z,20.37
2018-09-14T17:04:23.279Z,16.07
2018-09-14T17:06:54.055Z,12.50
2018-09-14T17:09:29.680Z,13.23
2018-09-14T17:12:00.704Z,15.30
2018-09-14T17:14:31.077Z,16.70
2018-09-14T17:17:03.124Z,13.20
2018-09-14T17:19:35.484Z,14.50
2018-09-14T17:22:06.995Z,21.53
2018-09-14T17:24:39.081Z,14.73
2018-09-14T17:27:09.386Z,14.03
2018-09-14T17:29:39.810Z,12.97
2018-09-14T17:32:13.572Z,15.10
2018-09-14T17:34:46.752Z,15.27
2018-09-14T17:37:17.932Z,12.37
2018-09-14T17:39:49.648Z,11.37
2018-09-14T17:42:19.874Z,13.17
2018-09-14T17:44:52.278Z,11.10
2018-09-14T17:47:23.430Z,13.70
2018-09-14T17:49:54.093Z,13.50
2018-09-14T17:52:24.395Z,15.33
2018-09-14T17:54:55.072Z,12.53
2018-09-14T17:57:27.651Z,19.20
2018-09-14T17:59:57.731Z,16.43
2018-09-14T18:02:28.451Z,13.43
2018-09-14T18:04:58.825Z,9.03
2018-09-14T18:07:31.261Z,16.80
2018-09-14T18:10:02.204Z,17.50
2018-09-14T18:12:36.450Z,15.63
2018-09-14T18:15:06.569Z,17.20
2018-09-14T18:17:36.848Z,12.60
2018-09-14T18:20:07.111Z,13.90
2018-09-14T18:22:39.054Z,14.63
2018-09-14T18:25:09.811Z,15.33
2018-09-14T18:27:39.797Z,10.57
2018-09-14T18:30:10.236Z,17.30
2018-09-14T18:32:41.272Z,14.70
2018-09-14T18:35:11.775Z,13.53
2018-09-14T18:37:42.105Z,13.57
2018-09-14T18:40:12.711Z,13.23
2018-09-14T18:42:45.937Z,14.70
2018-09-14T18:45:16.430Z,17.13
2018-09-14T18:47:47.416Z,17.10
2018-09-14T18:50:17.585Z,19.43
2018-09-14T18:52:49.059Z,17.67
2018-09-14T18:55:20.099Z,16.83
2018-09-14T18:57:52.021Z,18.53
2018-09-14T19:00:22.373Z,16.73
2018-09-14T19:02:53.477Z,22.73
2018-09-14T19:05:24.408Z,16.93
2018-09-14T19:07:54.758Z,16.70
2018-09-14T19:10:26.407Z,14.67
2018-09-14T19:12:56.630Z,20.87
2018-09-14T19:15:30.703Z,17.90
2018-09-14T19:18:01.806Z,16.87
2018-09-14T19:20:32.375Z,13.37
2018-09-14T19:23:04.405Z,16.47
2018-09-14T19:25:35.262Z,15.83
2018-09-14T19:28:05.517Z,17.60
2018-09-14T19:30:36.983Z,17.87
2018-09-14T19:33:08.616Z,19.67
2018-09-14T19:35:38.613Z,19.40
2018-09-14T19:38:11.335Z,25.70
2018-09-14T19:40:41.227Z,18.07
2018-09-14T19:43:13.122Z,18.17
2018-09-14T19:45:44.295Z,19.63
2018-09-14T19:48:14.381Z,18.00
2018-09-14T19:50:46.205Z,17.17
2018-09-14T19:53:16.427Z,12.73
2018-09-14T19:55:47.263Z,17.30
2018-09-14T19:58:19.121Z,12.60
2018-09-14T20:00:50.081Z,14.83
2018-09-14T20:03:21.780Z,15.47
2018-09-14T20:05:52.722Z,15.87
2018-09-14T20:08:23.519Z,13.90
2018-09-14T20:10:53.979Z,13.97
2018-09-14T20:13:25.597Z,14.97
2018-09-14T20:15:58.896Z,16.73
2018-09-14T20:18:29.150Z,18.87
2018-09-14T20:21:01.229Z,15.27
2018-09-14T20:23:31.786Z,13.33
2018-09-14T20:26:05.763Z,13.63
2018-09-14T20:28:35.924Z,16.03
2018-09-14T20:31:07.308Z,14.33
2018-09-14T20:33:37.636Z,22.47
2018-09-14T20:36:08.133Z,17.20
2018-09-14T20:38:38.221Z,17.10
2018-09-14T20:41:09.243Z,16.70
2018-09-14T20:43:39.434Z,15.13
2018-09-14T20:46:09.396Z,16.97
2018-09-14T20:48:39.753Z,20.23
2018-09-14T20:51:11.915Z,17.30
2018-09-14T20:53:42.971Z,16.20
2018-09-14T20:56:13.643Z,14.80
2018-09-14T20:58:43.798Z,16.97
2018-09-14T21:01:14.828Z,14.43
2018-09-14T21:03:46.757Z,22.33
2018-09-14T21:06:19.609Z,16.10
2018-09-14T21:08:51.886Z,14.97
2018-09-14T21:11:23.396Z,18.80
2018-09-14T21:13:54.149Z,14.27
2018-09-14T21:16:24.391Z,15.83
2018-09-14T21:18:54.931Z,16.70
2018-09-14T21:21:25.284Z,12.40
2018-09-14T21:23:56.334Z,14.03
2018-09-14T21:26:27.761Z,15.20
2018-09-14T21:28:58.768Z,15.77
2018-09-14T21:31:29.392Z,13.23
2018-09-14T21:34:00.715Z,16.40
2018-09-14T21:36:32.470Z,14.83
2018-09-14T21:39:02.906Z,13.77
2018-09-14T21:41:33.018Z,16.03
2018-09-14T21:44:02.842Z,16.43
2018-09-14T21:46:33.255Z,13.53
2018-09-14T21:49:04.243Z,15.40
2018-09-14T21:51:34.370Z,16.30
2018-09-14T21:54:10.319Z,10.97
2018-09-14T21:56:40.698Z,13.80
2018-09-14T21:59:10.860Z,13.67
2018-09-14T22:01:42.430Z,12.53
2018-09-14T22:04:12.279Z,22.60
2018-09-14T22:06:42.430Z,13.77
2018-09-14T22:09:12.480Z,16.30
2018-09-14T22:11:44.628Z,17.77
2018-09-14T22:14:14.726Z,12.23
2018-09-14T22:16:44.577Z,15.40
2018-09-14T22:19:15.304Z,20.10
2018-09-14T22:21:45.862Z,13.90
2018-09-14T22:24:17.014Z,16.10
2018-09-14T22:26:47.550Z,18.07
2018-09-14T22:29:18.416Z,12.10
2018-09-14T22:31:49.797Z,10.40
2018-09-14T22:34:20.671Z,13.10
2018-09-14T22:36:50.940Z,12.67
2018-09-14T22:39:22.901Z,14.67
2018-09-14T22:41:53.367Z,14.73
2018-09-14T22:44:23.795Z,12.93
2018-09-14T22:46:54.034Z,14.50
2018-09-14T22:49:24.437Z,12.47
2018-09-14T22:51:55.450Z,11.70
2018-09-14T22:54:25.430Z,12.97
2018-09-14T22:56:56.534Z,12.23
2018-09-14T22:59:26.384Z,11.33
2018-09-14T23:01:56.263Z,13.50
2018-09-14T23:04:26.285Z,9.90
2018-09-14T23:06:56.280Z,10.60
2018-09-14T23:09:26.447Z,12.87
2018-09-14T23:11:57.123Z,9.47
2018-09-14T23:14:28.081Z,10.63
2018-09-14T23:16:58.503Z,9.00
2018-09-14T23:19:28.321Z,8.90
2018-09-14T23:21:58.237Z,7.67
2018-09-14T23:24:28.506Z,5.40
2018-09-14T23:27:00.259Z,4.17
2018-09-14T23:29:30.762Z,5.00
2018-09-14T23:32:00.656Z,6.10
2018-09-14T23:34:30.938Z,4.07
2018-09-14T23:37:01.118Z,5.03
2018-09-14T23:39:31.909Z,7.47
2018-09-14T23:42:03.075Z,5.83
2018-09-14T23:44:33.042Z,10.03
2018-09-14T23:47:03.088Z,5.80
2018-09-14T23:49:34.243Z,6.60
2018-09-14T23:52:03.982Z,5.70
2018-09-14T23:54:33.874Z,4.40
2018-09-14T23:57:03.820Z,4.23
2018-09-14T23:59:34.380Z,4.37
